createdAt,value
2023-01-15T00:01:49.025Z,98036.69
2023-01-15T00:04:15.796Z,98028.59
2023-01-15T00:06:42.896Z,98022.44
2023-01-15T00:09:14.325Z,98025.63
2023-01-15T00:11:42.237Z,98033.88
2023-01-15T00:14:09.288Z,98030.38
2023-01-15T00:16:36.252Z,98057.16
2023-01-15T00:19:04.497Z,98040.69
2023-01-15T00:21:31.594Z,98039.59
2023-01-15T00:24:16.907Z,98032.47
2023-01-15T00:27:02.358Z,98036.44
2023-01-15T00:29:28.987Z,98031.06
2023-01-15T00:32:02.397Z,98034.34
2023-01-15T00:34:30.087Z,98026.78
2023-01-15T00:36:57.097Z,98035.97
2023-01-15T00:39:26.911Z,98039.75
2023-01-15T00:41:54.549Z,98028.50
2023-01-15T00:44:21.947Z,98036.56
2023-01-15T00:46:48.934Z,98047.97
2023-01-15T00:49:15.690Z,98055.75
2023-01-15T00:51:42.265Z,98074.91
2023-01-15T00:54:09.004Z,98069.50
2023-01-15T00:56:36.379Z,98070.94
2023-01-15T00:59:04.875Z,98092.78
2023-01-15T01:01:32.020Z,98085.50
2023-01-15T01:03:58.734Z,98083.44
2023-01-15T01:06:25.936Z,98094.97
2023-01-15T01:08:52.508Z,98107.75
2023-01-15T01:11:21.383Z,98094.59
2023-01-15T01:13:49.108Z,98106.25
2023-01-15T01:16:33.613Z,98106.97
2023-01-15T01:19:06.083Z,98105.66
2023-01-15T01:21:33.050Z,98111.59
2023-01-15T01:24:00.431Z,98124.66
2023-01-15T01:26:28.570Z,98127.13
2023-01-15T01:28:55.406Z,98136.38
2023-01-15T01:31:22.238Z,98130.34
2023-01-15T01:33:52.897Z,98142.81
2023-01-15T01:36:21.197Z,98144.22
2023-01-15T01:38:49.871Z,98139.13
2023-01-15T01:41:17.794Z,98142.75
2023-01-15T01:44:32.271Z,98149.78
2023-01-15T01:47:01.379Z,98146.03
2023-01-15T01:49:27.998Z,98143.41
2023-01-15T01:52:07.483Z,98144.16
2023-01-15T01:54:36.804Z,98145.25
2023-01-15T01:57:05.307Z,98137.91
2023-01-15T01:59:33.011Z,98139.09
2023-01-15T02:02:00.730Z,98139.22
2023-01-15T02:04:29.612Z,98144.38
2023-01-15T02:06:58.200Z,98143.09
2023-01-15T02:09:24.762Z,98154.47
2023-01-15T02:11:57.086Z,98145.91
2023-01-15T02:14:37.216Z,98143.81
2023-01-15T02:17:26.897Z,98172.06
2023-01-15T02:20:22.445Z,98165.72
2023-01-15T02:22:58.804Z,98174.53
2023-01-15T02:25:44.405Z,98165.38
2023-01-15T02:28:30.157Z,98173.56
2023-01-15T02:31:21.414Z,98187.84
2023-01-15T02:33:56.847Z,98184.91
2023-01-15T02:36:26.854Z,98190.25
2023-01-15T02:38:58.568Z,98184.41
2023-01-15T02:41:32.031Z,98171.56
2023-01-15T02:44:01.643Z,98181.22
2023-01-15T02:46:32.885Z,98180.72
2023-01-15T02:49:03.325Z,98178.81
2023-01-15T02:51:39.049Z,98181.72
2023-01-15T02:54:12.174Z,98174.94
2023-01-15T02:56:42.533Z,98183.31
2023-01-15T02:59:14.191Z,98195.72
2023-01-15T03:01:50.269Z,98190.94
2023-01-15T03:04:32.531Z,98196.84
2023-01-15T03:07:17.770Z,98208.13
2023-01-15T03:09:45.167Z,98217.50
2023-01-15T03:12:55.369Z,98222.38
2023-01-15T03:15:42.703Z,98212.72
2023-01-15T03:18:13.394Z,98216.78
2023-01-15T03:20:45.954Z,98213.59
2023-01-15T03:23:16.549Z,98227.34
2023-01-15T03:25:48.634Z,98214.91
2023-01-15T03:28:22.241Z,98207.94
2023-01-15T03:30:48.895Z,98203.34
2023-01-15T03:33:15.480Z,98200.38
2023-01-15T03:35:52.972Z,98204.66
2023-01-15T03:38:23.508Z,98198.00
2023-01-15T03:40:59.312Z,98195.63
2023-01-15T03:44:04.574Z,98204.34
2023-01-15T03:46:56.086Z,98214.66
2023-01-15T03:49:51.567Z,98217.44
2023-01-15T03:52:47.523Z,98210.50
2023-01-15T03:55:14.141Z,98213.22
2023-01-15T03:57:55.557Z,98215.72
2023-01-15T04:00:28.271Z,98212.84
2023-01-15T04:02:57.510Z,98229.00
2023-01-15T04:05:26.434Z,98227.91
2023-01-15T04:07:54.774Z,98216.09
2023-01-15T04:10:21.374Z,98212.34
2023-01-15T04:12:47.948Z,98224.16
2023-01-15T04:15:14.513Z,98209.16
2023-01-15T04:17:41.163Z,98221.97
2023-01-15T04:20:08.788Z,98217.97
2023-01-15T04:22:36.184Z,98235.97
2023-01-15T04:25:04.422Z,98231.69
2023-01-15T04:27:31.076Z,98233.28
2023-01-15T04:29:57.712Z,98263.06
2023-01-15T04:32:24.592Z,98248.38
2023-01-15T04:34:51.229Z,98252.16
2023-01-15T04:37:18.456Z,98261.28
2023-01-15T04:39:46.579Z,98257.00
2023-01-15T04:42:33.135Z,98236.13
2023-01-15T04:44:59.963Z,98256.56
2023-01-15T04:47:26.625Z,98253.88
2023-01-15T04:49:53.224Z,98246.94
2023-01-15T04:52:19.779Z,98263.50
2023-01-15T04:54:46.431Z,98260.25
2023-01-15T04:57:13.053Z,98259.69
2023-01-15T04:59:39.637Z,98259.69
2023-01-15T05:02:07.023Z,98248.97
2023-01-15T05:04:34.711Z,98242.00
2023-01-15T05:07:05.194Z,98231.28
2023-01-15T05:09:32.320Z,98239.31
2023-01-15T05:11:58.921Z,98239.81
2023-01-15T05:14:25.516Z,98252.16
2023-01-15T05:16:52.187Z,98267.66
2023-01-15T05:19:18.826Z,98264.97
2023-01-15T05:21:45.668Z,98272.13
2023-01-15T05:24:17.272Z,98260.88
2023-01-15T05:26:44.688Z,98266.78
2023-01-15T05:29:12.322Z,98270.25
2023-01-15T05:31:39.497Z,98269.66
2023-01-15T05:34:06.161Z,98268.56
2023-01-15T05:36:32.768Z,98282.19
2023-01-15T05:39:01.973Z,98284.56
2023-01-15T05:41:48.986Z,98292.91
2023-01-15T05:44:25.054Z,98291.59
2023-01-15T05:46:54.948Z,98279.78
2023-01-15T05:49:24.541Z,98282.47
2023-01-15T05:51:52.331Z,98281.38
2023-01-15T05:54:22.435Z,98281.19
2023-01-15T05:56:49.344Z,98283.56
2023-01-15T05:59:18.621Z,98267.47
2023-01-15T06:01:45.515Z,98269.19
2023-01-15T06:04:17.674Z,98268.75
2023-01-15T06:06:44.420Z,98281.03
2023-01-15T06:09:11.009Z,98290.97
2023-01-15T06:11:37.640Z,98279.00
2023-01-15T06:14:04.856Z,98287.91
2023-01-15T06:16:32.430Z,98300.31
2023-01-15T06:19:04.435Z,98297.72
2023-01-15T06:21:31.817Z,98292.88
2023-01-15T06:23:58.485Z,98291.19
2023-01-15T06:26:25.696Z,98286.19
2023-01-15T06:28:52.326Z,98299.91
2023-01-15T06:31:21.097Z,98307.88
2023-01-15T06:33:47.790Z,98298.00
2023-01-15T06:36:17.904Z,98311.09
2023-01-15T06:38:45.193Z,98318.41
2023-01-15T06:41:42.658Z,98329.66
2023-01-15T06:44:33.787Z,98340.03
2023-01-15T06:47:23.433Z,98338.53
2023-01-15T06:49:55.019Z,98347.66
2023-01-15T06:52:23.215Z,98350.63
2023-01-15T06:54:50.023Z,98356.78
2023-01-15T06:57:18.880Z,98361.34
2023-01-15T06:59:45.682Z,98346.13
2023-01-15T07:02:12.420Z,98361.63
2023-01-15T07:04:38.961Z,98370.25
2023-01-15T07:07:05.610Z,98377.22
2023-01-15T07:09:32.209Z,98377.72
2023-01-15T07:11:58.859Z,98365.41
2023-01-15T07:14:28.139Z,98361.94
2023-01-15T07:16:55.698Z,98375.63
2023-01-15T07:19:22.377Z,98381.47
2023-01-15T07:21:49.072Z,98398.06
2023-01-15T07:24:16.945Z,98401.28
2023-01-15T07:26:43.955Z,98393.53
2023-01-15T07:29:10.660Z,98398.66
2023-01-15T07:31:38.071Z,98391.19
2023-01-15T07:34:04.983Z,98391.50
2023-01-15T07:36:31.586Z,98393.28
2023-01-15T07:38:58.214Z,98403.25
2023-01-15T07:41:43.290Z,98404.53
2023-01-15T07:44:30.087Z,98392.50
2023-01-15T07:47:15.497Z,98399.75
2023-01-15T07:49:45.634Z,98412.94
2023-01-15T07:52:13.622Z,98416.13
2023-01-15T07:54:40.317Z,98417.94
2023-01-15T07:57:07.752Z,98417.16
2023-01-15T07:59:34.669Z,98405.59
2023-01-15T08:02:01.337Z,98404.03
2023-01-15T08:04:28.124Z,98410.78
2023-01-15T08:06:54.756Z,98416.63
2023-01-15T08:09:21.370Z,98417.16
2023-01-15T08:12:06.408Z,98419.53
2023-01-15T08:14:51.228Z,98415.75
2023-01-15T08:17:17.803Z,98434.25
2023-01-15T08:19:44.416Z,98456.50
2023-01-15T08:22:11.511Z,98459.72
2023-01-15T08:24:38.591Z,98466.66
2023-01-15T08:27:05.872Z,98456.94
2023-01-15T08:29:32.646Z,98466.09
2023-01-15T08:31:59.240Z,98468.75
2023-01-15T08:34:25.976Z,98468.75
2023-01-15T08:36:57.458Z,98471.44
2023-01-15T08:39:24.079Z,98469.84
2023-01-15T08:41:50.754Z,98471.94
2023-01-15T08:44:17.456Z,98474.06
2023-01-15T08:46:44.182Z,98476.50
2023-01-15T08:49:11.074Z,98477.59
2023-01-15T08:51:37.624Z,98491.31
2023-01-15T08:54:04.346Z,98490.16
2023-01-15T08:56:30.999Z,98499.50
2023-01-15T08:58:57.635Z,98501.09
2023-01-15T09:01:24.310Z,98514.22
2023-01-15T09:03:51.008Z,98515.22
2023-01-15T09:06:17.677Z,98506.13
2023-01-15T09:08:44.333Z,98502.34
2023-01-15T09:11:13.323Z,98506.91
2023-01-15T09:13:40.031Z,98501.03
2023-01-15T09:16:09.968Z,98499.13
2023-01-15T09:18:39.352Z,98506.13
2023-01-15T09:21:06.704Z,98493.22
2023-01-15T09:23:33.851Z,98499.38
2023-01-15T09:26:06.584Z,98513.38
2023-01-15T09:28:34.527Z,98523.25
2023-01-15T09:31:01.965Z,98522.22
2023-01-15T09:33:28.632Z,98532.94
2023-01-15T09:35:55.229Z,98543.09
2023-01-15T09:38:22.196Z,98533.47
2023-01-15T09:40:56.713Z,98538.00
2023-01-15T09:43:50.603Z,98542.59
2023-01-15T09:46:25.361Z,98557.09
2023-01-15T09:49:30.442Z,98556.56
2023-01-15T09:52:28.631Z,98557.63
2023-01-15T09:55:15.447Z,98568.84
2023-01-15T09:57:43.038Z,98570.38
2023-01-15T10:00:17.586Z,98579.38
2023-01-15T10:02:53.312Z,98581.44
2023-01-15T10:05:28.159Z,98585.06
2023-01-15T10:08:11.249Z,98585.22
2023-01-15T10:10:47.686Z,98610.19
2023-01-15T10:13:30.023Z,98610.19
2023-01-15T10:15:58.468Z,98627.31
2023-01-15T10:18:27.181Z,98609.63
2023-01-15T10:21:12.332Z,98616.59
2023-01-15T10:24:03.027Z,98625.72
2023-01-15T10:26:35.714Z,98621.38
2023-01-15T10:29:04.976Z,98636.09
2023-01-15T10:31:43.553Z,98622.97
2023-01-15T10:34:42.567Z,98621.94
2023-01-15T10:37:17.387Z,98626.81
2023-01-15T10:39:56.162Z,98626.06
2023-01-15T10:43:00.414Z,98619.88
2023-01-15T10:45:31.425Z,98606.97
2023-01-15T10:48:04.679Z,98631.69
2023-01-15T10:50:32.939Z,98621.72
2023-01-15T10:53:02.563Z,98626.81
2023-01-15T10:55:38.424Z,98609.63
2023-01-15T10:58:26.163Z,98616.59
2023-01-15T11:01:00.569Z,98629.13
2023-01-15T11:03:37.159Z,98613.00
2023-01-15T11:06:05.428Z,98603.31
2023-01-15T11:09:08.534Z,98610.72
2023-01-15T11:11:45.355Z,98616.25
2023-01-15T11:14:30.220Z,98617.50
2023-01-15T11:17:08.861Z,98615.06
2023-01-15T11:19:42.190Z,98604.25
2023-01-15T11:22:14.072Z,98608.53
2023-01-15T11:24:51.806Z,98611.81
2023-01-15T11:27:22.812Z,98614.56
2023-01-15T11:29:55.470Z,98608.41
2023-01-15T11:32:30.186Z,98618.63
2023-01-15T11:35:18.434Z,98595.69
2023-01-15T11:37:45.120Z,98596.94
2023-01-15T11:40:20.187Z,98607.91
2023-01-15T11:43:06.848Z,98602.94
2023-01-15T11:45:52.373Z,98600.75
2023-01-15T11:48:40.871Z,98599.63
2023-01-15T11:51:10.845Z,98614.09
2023-01-15T11:53:46.363Z,98590.69
2023-01-15T11:56:42.059Z,98593.78
2023-01-15T11:59:19.037Z,98596.47
2023-01-15T12:02:00.636Z,98582.19
2023-01-15T12:04:30.758Z,98578.94
2023-01-15T12:06:58.499Z,98580.75
2023-01-15T12:09:40.155Z,98580.34
2023-01-15T12:12:22.130Z,98571.41
2023-01-15T12:15:10.966Z,98570.84
2023-01-15T12:18:00.809Z,98576.16
2023-01-15T12:20:39.045Z,98574.47
2023-01-15T12:23:25.791Z,98579.63
2023-01-15T12:26:17.486Z,98579.91
2023-01-15T12:29:07.235Z,98576.78
2023-01-15T12:31:43.360Z,98563.13
2023-01-15T12:34:48.269Z,98568.22
2023-01-15T12:37:29.796Z,98561.47
2023-01-15T12:40:14.642Z,98576.88
2023-01-15T12:43:02.527Z,98573.69
2023-01-15T12:45:34.738Z,98581.53
2023-01-15T12:48:07.481Z,98570.59
2023-01-15T12:50:46.101Z,98560.97
2023-01-15T12:53:27.426Z,98555.09
2023-01-15T12:56:12.417Z,98565.34
2023-01-15T12:58:42.662Z,98561.56
2023-01-15T13:01:24.439Z,98563.09
2023-01-15T13:04:05.441Z,98554.88
2023-01-15T13:06:33.006Z,98547.72
2023-01-15T13:09:11.133Z,98548.72
2023-01-15T13:11:37.807Z,98550.75
2023-01-15T13:14:19.825Z,98550.75
2023-01-15T13:17:05.702Z,98557.22
2023-01-15T13:19:35.013Z,98541.59
2023-01-15T13:22:16.399Z,98564.72
2023-01-15T13:25:13.835Z,98560.53
2023-01-15T13:27:59.409Z,98561.66
2023-01-15T13:30:38.321Z,98562.97
2023-01-15T13:33:43.537Z,98575.50
2023-01-15T13:36:45.457Z,98553.06
2023-01-15T13:39:23.063Z,98565.41
2023-01-15T13:42:12.214Z,98557.44
2023-01-15T13:44:51.082Z,98566.34
2023-01-15T13:47:27.304Z,98555.41
2023-01-15T13:49:59.759Z,98579.84
2023-01-15T13:52:29.922Z,98573.47
2023-01-15T13:55:01.514Z,98562.31
2023-01-15T13:57:37.406Z,98572.84
2023-01-15T14:00:06.632Z,98572.34
2023-01-15T14:02:37.346Z,98564.03
2023-01-15T14:05:35.699Z,98572.19
2023-01-15T14:08:14.679Z,98572.41
2023-01-15T14:10:41.407Z,98572.09
2023-01-15T14:13:33.078Z,98563.47
2023-01-15T14:16:24.337Z,98571.44
2023-01-15T14:18:53.882Z,98571.16
2023-01-15T14:21:40.796Z,98594.09
2023-01-15T14:24:19.525Z,98583.72
2023-01-15T14:27:08.735Z,98581.59
2023-01-15T14:29:59.224Z,98576.56
2023-01-15T14:32:40.112Z,98582.56
2023-01-15T14:35:19.258Z,98577.19
2023-01-15T14:37:54.383Z,98581.19
2023-01-15T14:40:32.083Z,98576.66
2023-01-15T14:43:04.694Z,98583.25
2023-01-15T14:45:48.020Z,98598.56
2023-01-15T14:48:32.862Z,98579.84
2023-01-15T14:51:20.441Z,98577.19
2023-01-15T14:53:59.100Z,98580.47
2023-01-15T14:56:36.361Z,98568.13
2023-01-15T14:59:24.423Z,98572.13
2023-01-15T15:02:17.365Z,98577.19
2023-01-15T15:04:49.048Z,98580.41
2023-01-15T15:07:18.871Z,98605.09
2023-01-15T15:10:11.699Z,98600.81
2023-01-15T15:12:40.981Z,98601.94
2023-01-15T15:15:16.658Z,98592.06
2023-01-15T15:18:12.693Z,98602.50
2023-01-15T15:20:42.074Z,98595.78
2023-01-15T15:23:26.000Z,98598.72
2023-01-15T15:25:56.839Z,98607.00
2023-01-15T15:28:23.869Z,98591.50
2023-01-15T15:30:51.340Z,98584.19
2023-01-15T15:33:27.268Z,98587.38
2023-01-15T15:35:57.388Z,98583.03
2023-01-15T15:38:25.875Z,98576.56
2023-01-15T15:40:59.847Z,98572.56
2023-01-15T15:44:03.975Z,98559.97
2023-01-15T15:46:51.319Z,98564.25
2023-01-15T15:49:20.170Z,98572.88
2023-01-15T15:51:52.335Z,98565.91
2023-01-15T15:54:26.457Z,98558.88
2023-01-15T15:56:56.016Z,98546.25
2023-01-15T15:59:37.059Z,98572.88
2023-01-15T16:02:28.382Z,98561.63
2023-01-15T16:04:59.918Z,98553.34
2023-01-15T16:07:29.757Z,98547.16
2023-01-15T16:10:19.561Z,98556.31
2023-01-15T16:12:50.870Z,98542.91
2023-01-15T16:15:21.538Z,98553.63
2023-01-15T16:17:49.659Z,98563.84
2023-01-15T16:20:19.049Z,98549.34
2023-01-15T16:23:01.496Z,98560.66
2023-01-15T16:25:41.868Z,98561.69
2023-01-15T16:28:25.333Z,98549.81
2023-01-15T16:31:02.157Z,98543.56
2023-01-15T16:33:29.683Z,98548.88
2023-01-15T16:36:04.602Z,98557.44
2023-01-15T16:38:33.845Z,98554.44
2023-01-15T16:41:02.019Z,98544.53
2023-01-15T16:43:30.781Z,98544.22
2023-01-15T16:46:17.509Z,98534.56
2023-01-15T16:48:48.471Z,98540.44
2023-01-15T16:51:31.151Z,98543.72
2023-01-15T16:54:03.519Z,98540.44
2023-01-15T16:56:38.773Z,98539.94
2023-01-15T16:59:15.886Z,98537.25
2023-01-15T17:01:46.227Z,98530.81
2023-01-15T17:04:27.871Z,98516.88
2023-01-15T17:07:05.234Z,98522.25
2023-01-15T17:09:35.523Z,98518.78
2023-01-15T17:12:28.166Z,98517.47
2023-01-15T17:14:55.003Z,98531.38
2023-01-15T17:17:21.631Z,98527.63
2023-01-15T17:19:52.269Z,98525.44
2023-01-15T17:22:30.836Z,98524.34
2023-01-15T17:24:59.642Z,98519.78
2023-01-15T17:27:28.124Z,98517.09
2023-01-15T17:29:55.606Z,98508.25
2023-01-15T17:32:36.170Z,98502.38
2023-01-15T17:35:02.768Z,98509.34
2023-01-15T17:37:29.324Z,98502.38
2023-01-15T17:39:55.999Z,98501.78
2023-01-15T17:42:22.597Z,98500.19
2023-01-15T17:44:49.131Z,98507.75
2023-01-15T17:47:15.985Z,98496.56
2023-01-15T17:49:42.594Z,98494.75
2023-01-15T17:52:18.301Z,98485.97
2023-01-15T17:55:03.622Z,98480.41
2023-01-15T17:57:48.535Z,98482.28
2023-01-15T18:00:33.958Z,98471.63
2023-01-15T18:03:19.421Z,98478.66
2023-01-15T18:05:49.258Z,98469.28
2023-01-15T18:08:18.862Z,98465.81
2023-01-15T18:10:45.469Z,98469.59
2023-01-15T18:13:12.780Z,98465.00
2023-01-15T18:15:39.448Z,98463.13
2023-01-15T18:18:06.041Z,98463.66
2023-01-15T18:20:33.030Z,98463.66
2023-01-15T18:22:59.634Z,98464.44
2023-01-15T18:25:26.321Z,98461.47
2023-01-15T18:27:53.118Z,98457.69
2023-01-15T18:30:20.071Z,98458.19
2023-01-15T18:32:46.705Z,98470.53
2023-01-15T18:35:14.775Z,98469.66
2023-01-15T18:37:41.414Z,98476.63
2023-01-15T18:40:09.217Z,98453.34
2023-01-15T18:42:57.311Z,98449.94
2023-01-15T18:45:43.756Z,98429.13
2023-01-15T18:48:10.844Z,98431.38
2023-01-15T18:50:37.537Z,98426.88
2023-01-15T18:53:04.161Z,98407.88
2023-01-15T18:55:30.776Z,98401.78
2023-01-15T18:57:57.540Z,98401.28
2023-01-15T19:00:24.947Z,98395.94
2023-01-15T19:02:52.117Z,98392.94
2023-01-15T19:05:19.172Z,98392.16
2023-01-15T19:07:46.235Z,98380.63
2023-01-15T19:10:14.072Z,98385.47
2023-01-15T19:12:40.757Z,98384.91
2023-01-15T19:15:27.011Z,98384.13
2023-01-15T19:18:12.555Z,98372.31
2023-01-15T19:20:39.484Z,98369.63
2023-01-15T19:23:06.656Z,98379.25
2023-01-15T19:25:37.395Z,98378.69
2023-01-15T19:28:04.394Z,98370.31
2023-01-15T19:30:32.410Z,98383.72
2023-01-15T19:32:58.953Z,98371.72
2023-01-15T19:35:25.732Z,98366.56
2023-01-15T19:37:55.056Z,98353.47
2023-01-15T19:40:22.421Z,98344.31
2023-01-15T19:43:11.826Z,98342.72
2023-01-15T19:45:59.724Z,98333.09
2023-01-15T19:48:45.545Z,98326.22
2023-01-15T19:51:13.710Z,98320.84
2023-01-15T19:53:40.634Z,98313.59
2023-01-15T19:56:08.086Z,98316.00
2023-01-15T19:58:37.084Z,98311.72
2023-01-15T20:01:04.358Z,98330.19
2023-01-15T20:03:31.170Z,98331.50
2023-01-15T20:05:58.045Z,98329.81
2023-01-15T20:08:24.631Z,98319.97
2023-01-15T20:10:51.497Z,98314.44
2023-01-15T20:13:45.557Z,98309.03
2023-01-15T20:16:17.993Z,98297.38
2023-01-15T20:18:45.841Z,98308.44
2023-01-15T20:21:14.764Z,98290.03
2023-01-15T20:23:42.948Z,98284.69
2023-01-15T20:26:13.243Z,98283.09
2023-01-15T20:28:42.498Z,98283.41
2023-01-15T20:31:17.420Z,98280.22
2023-01-15T20:33:44.087Z,98268.97
2023-01-15T20:36:10.783Z,98265.00
2023-01-15T20:38:37.362Z,98265.28
2023-01-15T20:41:27.346Z,98255.13
2023-01-15T20:44:12.748Z,98255.63
2023-01-15T20:46:39.487Z,98256.16
2023-01-15T20:49:24.625Z,98258.25
2023-01-15T20:51:52.854Z,98255.22
2023-01-15T20:54:20.384Z,98235.88
2023-01-15T20:56:47.130Z,98246.81
2023-01-15T20:59:13.740Z,98251.09
2023-01-15T21:01:42.927Z,98236.91
2023-01-15T21:04:10.795Z,98230.72
2023-01-15T21:06:37.428Z,98232.31
2023-01-15T21:09:04.004Z,98233.91
2023-01-15T21:11:30.620Z,98227.97
2023-01-15T21:13:57.159Z,98221.25
2023-01-15T21:16:23.774Z,98224.66
2023-01-15T21:18:51.022Z,98232.97
2023-01-15T21:21:19.609Z,98218.19
2023-01-15T21:23:46.461Z,98211.44
2023-01-15T21:26:14.811Z,98199.84
2023-01-15T21:28:42.063Z,98195.56
2023-01-15T21:31:09.831Z,98196.66
2023-01-15T21:33:36.748Z,98190.22
2023-01-15T21:36:07.646Z,98181.38
2023-01-15T21:38:34.686Z,98161.81
2023-01-15T21:41:09.962Z,98182.75
2023-01-15T21:43:55.294Z,98160.72
2023-01-15T21:46:23.314Z,98161.72
2023-01-15T21:48:57.368Z,98163.31
2023-01-15T21:51:25.452Z,98149.63
2023-01-15T21:53:52.166Z,98151.41
2023-01-15T21:56:18.725Z,98147.34
2023-01-15T21:58:45.253Z,98141.72
2023-01-15T22:01:14.503Z,98148.66
2023-01-15T22:03:41.249Z,98143.09
2023-01-15T22:06:09.803Z,98130.38
2023-01-15T22:08:36.940Z,98130.38
2023-01-15T22:11:05.703Z,98133.56
2023-01-15T22:13:33.333Z,98128.72
2023-01-15T22:16:00.417Z,98120.16
2023-01-15T22:18:27.920Z,98106.25
2023-01-15T22:20:59.113Z,98097.41
2023-01-15T22:23:25.941Z,98095.03
2023-01-15T22:25:52.751Z,98094.72
2023-01-15T22:28:19.381Z,98096.63
2023-01-15T22:30:46.366Z,98102.00
2023-01-15T22:33:13.611Z,98103.56
2023-01-15T22:35:40.221Z,98103.09
2023-01-15T22:38:06.825Z,98102.28
2023-01-15T22:40:33.414Z,98112.28
2023-01-15T22:43:00.315Z,98096.63
2023-01-15T22:45:27.037Z,98077.13
2023-01-15T22:47:53.587Z,98075.53
2023-01-15T22:50:20.302Z,98084.69
2023-01-15T22:52:46.919Z,98056.47
2023-01-15T22:55:14.348Z,98061.06
2023-01-15T22:57:40.917Z,98051.91
2023-01-15T23:00:08.263Z,98053.00
2023-01-15T23:02:53.206Z,98050.94
2023-01-15T23:05:19.879Z,98049.84
2023-01-15T23:07:46.514Z,98047.16
2023-01-15T23:10:13.984Z,98046.56
2023-01-15T23:12:41.828Z,98044.38
2023-01-15T23:15:13.208Z,98036.81
2023-01-15T23:17:40.518Z,98022.94
2023-01-15T23:20:08.491Z,98022.13
2023-01-15T23:22:35.302Z,98019.25
2023-01-15T23:25:02.014Z,98012.50
2023-01-15T23:27:28.595Z,98012.22
2023-01-15T23:29:55.174Z,98003.06
2023-01-15T23:32:21.827Z,97997.72
2023-01-15T23:34:48.394Z,97988.56
2023-01-15T23:37:15.024Z,97981.84
2023-01-15T23:39:41.810Z,97988.47
2023-01-15T23:42:28.979Z,97980.44
2023-01-15T23:45:13.771Z,97975.28
2023-01-15T23:47:40.362Z,97957.50
2023-01-15T23:50:07.593Z,97951.84
2023-01-15T23:52:34.156Z,97944.91
2023-01-15T23:55:00.717Z,97921.84
2023-01-15T23:57:27.339Z,97925.63
2023-01-15T23:59:53.863Z,97914.91
